Decoded Metar for LDPL (PULA in CROATIA) (IATA:PUY) | Meteo·Mobile Aviation Weather
aviador You're here:

LDPL Decoded Metar

PULA in CROATIA
Report Time2019-01-18 12:00:00
UTC Time2019-01-18 12:21:37
Flight Rules vfr VFR
Wind070° at 17 kt
W.Decomp.*RWY 09: 15.6 kt HW 6.6 kt LCW
W.Rank070° ranks 1
Current wind is above 070° avg. (9.6)
Visibility9999 m
Phenomena:Light Rain
Clouds:Few 007 Hf
Overcast 040 Hf
Expected CloudBase > 800 ft AGL from Temp-Dew spread
Ceiling4,000 ft
Temp05°C (ISA -10)
Dew Point03°C (87% RH)
AAT-2.6°C
QNH1013 hPa
Density Alt-846 ft
Elevation207 ft
Report Wrong Elevation
Raw Report
LDPL 181200Z 07017KT 9999 -RA FEW007 OVC040 05/03 Q1013 TEMPO
07015G25KT=

Extra information for LDPL:More info

Metar Taf Metar & Taf Last 4 Metars F.Rules Stats Wind Profile Meteogram Temp Stats Airport Information Weather charts Add Link Nearby VenuesMetar ALERT Operation Metar Decoded Social comments